sensor_id;sensor_type;location;lat;lon;timestamp;temperature;humidity
83828;DHT22;74656;48.870;12.562;2024-02-28T00:02:40;4.20;89.10
83828;DHT22;74656;48.870;12.562;2024-02-28T00:05:42;4.20;89.30
83828;DHT22;74656;48.870;12.562;2024-02-28T00:08:44;4.10;89.20
83828;DHT22;74656;48.870;12.562;2024-02-28T00:11:47;4.10;89.10
83828;DHT22;74656;48.870;12.562;2024-02-28T00:14:48;4.00;89.40
83828;DHT22;74656;48.870;12.562;2024-02-28T00:17:54;4.00;89.50
83828;DHT22;74656;48.870;12.562;2024-02-28T00:20:56;4.00;89.40
83828;DHT22;74656;48.870;12.562;2024-02-28T00:23:59;3.90;89.50
83828;DHT22;74656;48.870;12.562;2024-02-28T00:27:01;3.90;89.70
83828;DHT22;74656;48.870;12.562;2024-02-28T00:30:03;3.90;89.70
83828;DHT22;74656;48.870;12.562;2024-02-28T00:33:05;4.10;91.50
83828;DHT22;74656;48.870;12.562;2024-02-28T00:36:07;4.30;91.70
83828;DHT22;74656;48.870;12.562;2024-02-28T00:39:10;4.30;91.00
83828;DHT22;74656;48.870;12.562;2024-02-28T00:42:12;4.20;90.60
83828;DHT22;74656;48.870;12.562;2024-02-28T00:45:14;4.10;89.80
83828;DHT22;74656;48.870;12.562;2024-02-28T00:48:16;4.00;90.00
83828;DHT22;74656;48.870;12.562;2024-02-28T00:51:18;4.00;90.00
83828;DHT22;74656;48.870;12.562;2024-02-28T00:54:21;3.80;89.80
83828;DHT22;74656;48.870;12.562;2024-02-28T00:57:22;3.70;89.50
83828;DHT22;74656;48.870;12.562;2024-02-28T01:00:25;3.60;89.20
83828;DHT22;74656;48.870;12.562;2024-02-28T01:03:27;3.60;89.30
83828;DHT22;74656;48.870;12.562;2024-02-28T01:06:29;3.50;89.40
83828;DHT22;74656;48.870;12.562;2024-02-28T01:09:30;3.40;89.60
83828;DHT22;74656;48.870;12.562;2024-02-28T01:12:32;3.40;90.00
83828;DHT22;74656;48.870;12.562;2024-02-28T01:15:35;3.40;90.40
83828;DHT22;74656;48.870;12.562;2024-02-28T01:18:36;3.30;90.00
83828;DHT22;74656;48.870;12.562;2024-02-28T01:21:39;3.30;89.80
83828;DHT22;74656;48.870;12.562;2024-02-28T01:24:41;3.20;89.60
83828;DHT22;74656;48.870;12.562;2024-02-28T01:27:43;3.20;90.00
83828;DHT22;74656;48.870;12.562;2024-02-28T01:30:45;3.20;90.00
83828;DHT22;74656;48.870;12.562;2024-02-28T01:33:47;3.10;89.90
83828;DHT22;74656;48.870;12.562;2024-02-28T01:36:50;3.00;89.50
83828;DHT22;74656;48.870;12.562;2024-02-28T01:39:52;3.00;89.90
83828;DHT22;74656;48.870;12.562;2024-02-28T01:42:54;3.00;90.20
83828;DHT22;74656;48.870;12.562;2024-02-28T01:45:56;3.00;89.90
83828;DHT22;74656;48.870;12.562;2024-02-28T01:49:01;3.00;90.40
83828;DHT22;74656;48.870;12.562;2024-02-28T01:52:04;3.00;90.40
83828;DHT22;74656;48.870;12.562;2024-02-28T01:55:06;3.00;90.70
83828;DHT22;74656;48.870;12.562;2024-02-28T01:58:09;3.10;91.30
83828;DHT22;74656;48.870;12.562;2024-02-28T02:01:13;3.00;90.70
83828;DHT22;74656;48.870;12.562;2024-02-28T02:04:19;3.00;90.40
83828;DHT22;74656;48.870;12.562;2024-02-28T02:07:21;2.90;90.10
83828;DHT22;74656;48.870;12.562;2024-02-28T02:10:25;2.90;90.00
83828;DHT22;74656;48.870;12.562;2024-02-28T02:13:27;2.80;90.00
83828;DHT22;74656;48.870;12.562;2024-02-28T02:16:28;2.90;90.50
83828;DHT22;74656;48.870;12.562;2024-02-28T02:19:30;2.90;90.60
83828;DHT22;74656;48.870;12.562;2024-02-28T02:22:35;2.90;90.70
83828;DHT22;74656;48.870;12.562;2024-02-28T02:25:45;2.90;90.50
83828;DHT22;74656;48.870;12.562;2024-02-28T02:28:48;2.80;90.00
83828;DHT22;74656;48.870;12.562;2024-02-28T02:31:49;2.70;89.70
83828;DHT22;74656;48.870;12.562;2024-02-28T02:34:51;2.60;89.60
83828;DHT22;74656;48.870;12.562;2024-02-28T02:37:54;2.60;89.60
83828;DHT22;74656;48.870;12.562;2024-02-28T02:40:56;2.70;90.30
83828;DHT22;74656;48.870;12.562;2024-02-28T02:43:58;2.90;91.20
83828;DHT22;74656;48.870;12.562;2024-02-28T02:47:00;2.90;90.80
83828;DHT22;74656;48.870;12.562;2024-02-28T02:50:03;3.00;90.80
83828;DHT22;74656;48.870;12.562;2024-02-28T02:53:09;2.90;90.20
83828;DHT22;74656;48.870;12.562;2024-02-28T02:56:12;2.90;90.30
83828;DHT22;74656;48.870;12.562;2024-02-28T02:59:14;2.90;90.00
83828;DHT22;74656;48.870;12.562;2024-02-28T03:02:16;2.80;89.80
83828;DHT22;74656;48.870;12.562;2024-02-28T03:05:18;2.70;89.70
83828;DHT22;74656;48.870;12.562;2024-02-28T03:08:20;2.70;90.20
83828;DHT22;74656;48.870;12.562;2024-02-28T03:11:22;2.70;90.20
83828;DHT22;74656;48.870;12.562;2024-02-28T03:14:23;2.60;89.90
83828;DHT22;74656;48.870;12.562;2024-02-28T03:17:26;2.60;90.50
83828;DHT22;74656;48.870;12.562;2024-02-28T03:20:28;2.60;90.70
83828;DHT22;74656;48.870;12.562;2024-02-28T03:23:30;2.60;90.60
83828;DHT22;74656;48.870;12.562;2024-02-28T03:26:32;2.60;90.20
83828;DHT22;74656;48.870;12.562;2024-02-28T03:29:34;2.50;90.00
83828;DHT22;74656;48.870;12.562;2024-02-28T03:32:36;2.50;90.00
83828;DHT22;74656;48.870;12.562;2024-02-28T03:35:38;2.40;89.70
83828;DHT22;74656;48.870;12.562;2024-02-28T03:38:40;2.40;89.90
83828;DHT22;74656;48.870;12.562;2024-02-28T03:41:42;2.40;89.70
83828;DHT22;74656;48.870;12.562;2024-02-28T03:44:45;2.30;89.50
83828;DHT22;74656;48.870;12.562;2024-02-28T03:47:47;2.20;89.30
83828;DHT22;74656;48.870;12.562;2024-02-28T03:50:49;2.20;89.30
83828;DHT22;74656;48.870;12.562;2024-02-28T03:53:51;2.20;89.70
83828;DHT22;74656;48.870;12.562;2024-02-28T03:56:53;2.20;89.80
83828;DHT22;74656;48.870;12.562;2024-02-28T03:59:55;2.20;89.90
83828;DHT22;74656;48.870;12.562;2024-02-28T04:02:57;2.10;89.80
83828;DHT22;74656;48.870;12.562;2024-02-28T04:05:59;2.10;89.50
83828;DHT22;74656;48.870;12.562;2024-02-28T04:09:02;2.00;89.50
83828;DHT22;74656;48.870;12.562;2024-02-28T04:12:04;2.00;89.50
83828;DHT22;74656;48.870;12.562;2024-02-28T04:15:07;2.00;89.40
83828;DHT22;74656;48.870;12.562;2024-02-28T04:18:10;1.90;89.40
83828;DHT22;74656;48.870;12.562;2024-02-28T04:21:13;1.90;89.50
83828;DHT22;74656;48.870;12.562;2024-02-28T04:24:15;2.00;89.80
83828;DHT22;74656;48.870;12.562;2024-02-28T04:27:18;2.00;89.80
83828;DHT22;74656;48.870;12.562;2024-02-28T04:30:20;2.00;89.80
83828;DHT22;74656;48.870;12.562;2024-02-28T04:33:22;2.00;90.10
83828;DHT22;74656;48.870;12.562;2024-02-28T04:36:25;2.00;90.00
83828;DHT22;74656;48.870;12.562;2024-02-28T04:39:27;2.10;90.70
83828;DHT22;74656;48.870;12.562;2024-02-28T04:42:29;2.20;91.00
83828;DHT22;74656;48.870;12.562;2024-02-28T04:45:31;2.30;91.30
83828;DHT22;74656;48.870;12.562;2024-02-28T04:48:33;2.40;91.20
83828;DHT22;74656;48.870;12.562;2024-02-28T04:51:36;2.40;91.40
83828;DHT22;74656;48.870;12.562;2024-02-28T04:54:40;2.40;91.20
83828;DHT22;74656;48.870;12.562;2024-02-28T04:57:42;2.50;91.10
83828;DHT22;74656;48.870;12.562;2024-02-28T05:00:44;2.50;90.90
83828;DHT22;74656;48.870;12.562;2024-02-28T05:03:47;2.40;90.70
83828;DHT22;74656;48.870;12.562;2024-02-28T05:06:49;2.50;90.60
83828;DHT22;74656;48.870;12.562;2024-02-28T05:09:51;2.50;90.20
83828;DHT22;74656;48.870;12.562;2024-02-28T05:12:53;2.40;90.30
83828;DHT22;74656;48.870;12.562;2024-02-28T05:15:55;2.40;90.70
83828;DHT22;74656;48.870;12.562;2024-02-28T05:18:57;2.50;91.10
83828;DHT22;74656;48.870;12.562;2024-02-28T05:21:59;2.60;91.10
83828;DHT22;74656;48.870;12.562;2024-02-28T05:25:02;2.70;91.40
83828;DHT22;74656;48.870;12.562;2024-02-28T05:28:04;2.70;91.40
83828;DHT22;74656;48.870;12.562;2024-02-28T05:31:26;2.80;91.80
83828;DHT22;74656;48.870;12.562;2024-02-28T05:34:28;2.90;92.20
83828;DHT22;74656;48.870;12.562;2024-02-28T05:37:30;3.00;92.10
83828;DHT22;74656;48.870;12.562;2024-02-28T05:40:32;3.10;92.10
83828;DHT22;74656;48.870;12.562;2024-02-28T05:43:36;3.10;91.90
83828;DHT22;74656;48.870;12.562;2024-02-28T05:46:38;3.20;92.10
83828;DHT22;74656;48.870;12.562;2024-02-28T05:49:40;3.30;91.90
83828;DHT22;74656;48.870;12.562;2024-02-28T05:52:42;3.40;92.00
83828;DHT22;74656;48.870;12.562;2024-02-28T05:55:45;3.50;92.20
83828;DHT22;74656;48.870;12.562;2024-02-28T05:58:47;3.50;91.80
83828;DHT22;74656;48.870;12.562;2024-02-28T06:01:49;3.60;91.70
83828;DHT22;74656;48.870;12.562;2024-02-28T06:04:51;3.60;91.80
83828;DHT22;74656;48.870;12.562;2024-02-28T06:07:54;3.70;91.80
83828;DHT22;74656;48.870;12.562;2024-02-28T06:10:56;3.80;91.90
83828;DHT22;74656;48.870;12.562;2024-02-28T06:13:58;3.80;92.00
83828;DHT22;74656;48.870;12.562;2024-02-28T06:17:00;3.90;92.40
83828;DHT22;74656;48.870;12.562;2024-02-28T06:20:03;4.00;92.50
83828;DHT22;74656;48.870;12.562;2024-02-28T06:23:05;4.00;92.60
83828;DHT22;74656;48.870;12.562;2024-02-28T06:26:17;4.10;92.50
83828;DHT22;74656;48.870;12.562;2024-02-28T06:29:20;4.20;92.40
83828;DHT22;74656;48.870;12.562;2024-02-28T06:32:23;4.20;92.50
83828;DHT22;74656;48.870;12.562;2024-02-28T06:35:26;4.30;92.20
83828;DHT22;74656;48.870;12.562;2024-02-28T06:38:27;4.30;92.00
83828;DHT22;74656;48.870;12.562;2024-02-28T06:41:30;4.30;91.80
83828;DHT22;74656;48.870;12.562;2024-02-28T06:44:32;4.50;92.10
83828;DHT22;74656;48.870;12.562;2024-02-28T06:47:34;4.60;92.20
83828;DHT22;74656;48.870;12.562;2024-02-28T06:50:36;4.60;91.90
83828;DHT22;74656;48.870;12.562;2024-02-28T06:53:38;4.70;91.60
83828;DHT22;74656;48.870;12.562;2024-02-28T06:56:40;4.70;91.50
83828;DHT22;74656;48.870;12.562;2024-02-28T06:59:42;4.80;91.40
83828;DHT22;74656;48.870;12.562;2024-02-28T07:02:45;4.80;91.20
83828;DHT22;74656;48.870;12.562;2024-02-28T07:05:47;4.90;91.00
83828;DHT22;74656;48.870;12.562;2024-02-28T07:08:49;4.90;90.80
83828;DHT22;74656;48.870;12.562;2024-02-28T07:11:51;4.90;90.20
83828;DHT22;74656;48.870;12.562;2024-02-28T07:14:53;5.00;90.20
83828;DHT22;74656;48.870;12.562;2024-02-28T07:17:55;5.00;90.00
83828;DHT22;74656;48.870;12.562;2024-02-28T07:20:57;5.10;89.70
83828;DHT22;74656;48.870;12.562;2024-02-28T07:23:59;5.10;89.60
83828;DHT22;74656;48.870;12.562;2024-02-28T07:27:01;5.20;89.70
83828;DHT22;74656;48.870;12.562;2024-02-28T07:30:03;5.30;89.30
83828;DHT22;74656;48.870;12.562;2024-02-28T07:33:05;5.40;89.60
83828;DHT22;74656;48.870;12.562;2024-02-28T07:36:08;5.40;88.70
83828;DHT22;74656;48.870;12.562;2024-02-28T07:39:10;5.40;88.30
83828;DHT22;74656;48.870;12.562;2024-02-28T07:42:12;5.50;89.20
83828;DHT22;74656;48.870;12.562;2024-02-28T07:45:14;5.50;89.40
83828;DHT22;74656;48.870;12.562;2024-02-28T07:48:16;5.60;89.30
83828;DHT22;74656;48.870;12.562;2024-02-28T07:51:18;5.70;89.00
83828;DHT22;74656;48.870;12.562;2024-02-28T07:54:20;5.70;87.50
83828;DHT22;74656;48.870;12.562;2024-02-28T07:57:22;5.70;87.30
83828;DHT22;74656;48.870;12.562;2024-02-28T08:00:24;5.80;87.10
83828;DHT22;74656;48.870;12.562;2024-02-28T08:03:26;5.80;85.30
83828;DHT22;74656;48.870;12.562;2024-02-28T08:06:29;5.80;85.10
83828;DHT22;74656;48.870;12.562;2024-02-28T08:09:31;5.80;84.70
83828;DHT22;74656;48.870;12.562;2024-02-28T08:12:32;5.70;84.60
83828;DHT22;74656;48.870;12.562;2024-02-28T08:15:35;5.80;86.60
83828;DHT22;74656;48.870;12.562;2024-02-28T08:18:37;5.70;86.70
83828;DHT22;74656;48.870;12.562;2024-02-28T08:21:39;5.70;86.30
83828;DHT22;74656;48.870;12.562;2024-02-28T08:24:42;5.70;85.50
83828;DHT22;74656;48.870;12.562;2024-02-28T08:27:44;5.80;85.30
83828;DHT22;74656;48.870;12.562;2024-02-28T08:30:46;5.90;85.80
83828;DHT22;74656;48.870;12.562;2024-02-28T08:33:48;6.00;84.70
83828;DHT22;74656;48.870;12.562;2024-02-28T08:36:50;6.10;83.40
83828;DHT22;74656;48.870;12.562;2024-02-28T08:39:53;6.20;83.80
83828;DHT22;74656;48.870;12.562;2024-02-28T08:42:55;6.20;83.10
83828;DHT22;74656;48.870;12.562;2024-02-28T08:45:58;6.30;82.50
83828;DHT22;74656;48.870;12.562;2024-02-28T08:49:00;6.20;81.80
83828;DHT22;74656;48.870;12.562;2024-02-28T08:52:02;6.30;82.30
83828;DHT22;74656;48.870;12.562;2024-02-28T08:55:05;6.40;82.20
83828;DHT22;74656;48.870;12.562;2024-02-28T08:58:07;6.50;81.50
83828;DHT22;74656;48.870;12.562;2024-02-28T09:01:09;6.70;81.10
83828;DHT22;74656;48.870;12.562;2024-02-28T09:04:10;6.90;81.70
83828;DHT22;74656;48.870;12.562;2024-02-28T09:07:30;7.30;83.60
83828;DHT22;74656;48.870;12.562;2024-02-28T09:10:33;7.70;82.30
83828;DHT22;74656;48.870;12.562;2024-02-28T09:13:35;7.60;78.50
83828;DHT22;74656;48.870;12.562;2024-02-28T09:16:37;7.60;77.50
83828;DHT22;74656;48.870;12.562;2024-02-28T09:19:40;7.70;77.20
83828;DHT22;74656;48.870;12.562;2024-02-28T09:22:42;7.50;77.80
83828;DHT22;74656;48.870;12.562;2024-02-28T09:25:44;7.50;77.70
83828;DHT22;74656;48.870;12.562;2024-02-28T09:28:46;7.60;77.90
83828;DHT22;74656;48.870;12.562;2024-02-28T09:31:48;7.60;77.00
83828;DHT22;74656;48.870;12.562;2024-02-28T09:34:51;7.60;77.20
83828;DHT22;74656;48.870;12.562;2024-02-28T09:37:53;7.60;77.10
83828;DHT22;74656;48.870;12.562;2024-02-28T09:40:54;7.60;76.70
83828;DHT22;74656;48.870;12.562;2024-02-28T09:43:57;7.60;76.70
83828;DHT22;74656;48.870;12.562;2024-02-28T09:46:59;7.50;77.50
83828;DHT22;74656;48.870;12.562;2024-02-28T09:50:01;7.50;78.00
83828;DHT22;74656;48.870;12.562;2024-02-28T09:53:03;7.40;78.00
83828;DHT22;74656;48.870;12.562;2024-02-28T09:56:11;7.60;78.20
83828;DHT22;74656;48.870;12.562;2024-02-28T09:59:15;7.60;77.80
83828;DHT22;74656;48.870;12.562;2024-02-28T10:02:17;7.70;79.00
83828;DHT22;74656;48.870;12.562;2024-02-28T10:05:22;7.90;77.80
83828;DHT22;74656;48.870;12.562;2024-02-28T10:08:24;8.10;76.60
83828;DHT22;74656;48.870;12.562;2024-02-28T10:11:26;8.10;75.80
83828;DHT22;74656;48.870;12.562;2024-02-28T10:14:28;7.90;76.70
83828;DHT22;74656;48.870;12.562;2024-02-28T10:17:30;7.80;76.30
83828;DHT22;74656;48.870;12.562;2024-02-28T10:20:34;8.00;75.90
83828;DHT22;74656;48.870;12.562;2024-02-28T10:23:36;8.10;75.80
83828;DHT22;74656;48.870;12.562;2024-02-28T10:26:45;8.00;75.90
83828;DHT22;74656;48.870;12.562;2024-02-28T10:29:48;8.10;75.10
83828;DHT22;74656;48.870;12.562;2024-02-28T10:32:50;8.20;75.20
83828;DHT22;74656;48.870;12.562;2024-02-28T10:35:52;8.30;74.90
83828;DHT22;74656;48.870;12.562;2024-02-28T10:38:55;8.20;74.20
83828;DHT22;74656;48.870;12.562;2024-02-28T10:42:00;8.30;74.20
83828;DHT22;74656;48.870;12.562;2024-02-28T10:45:02;8.30;74.30
83828;DHT22;74656;48.870;12.562;2024-02-28T10:48:22;8.50;73.00
83828;DHT22;74656;48.870;12.562;2024-02-28T10:51:26;8.60;72.80
83828;DHT22;74656;48.870;12.562;2024-02-28T10:54:29;8.70;72.30
83828;DHT22;74656;48.870;12.562;2024-02-28T10:57:33;8.60;72.40
83828;DHT22;74656;48.870;12.562;2024-02-28T11:00:39;8.50;72.30
83828;DHT22;74656;48.870;12.562;2024-02-28T11:03:42;8.40;72.90
83828;DHT22;74656;48.870;12.562;2024-02-28T11:06:53;8.50;72.60
83828;DHT22;74656;48.870;12.562;2024-02-28T11:09:56;8.60;72.50
83828;DHT22;74656;48.870;12.562;2024-02-28T11:12:59;8.90;72.20
83828;DHT22;74656;48.870;12.562;2024-02-28T11:16:08;9.20;70.20
83828;DHT22;74656;48.870;12.562;2024-02-28T11:19:22;9.00;70.20
83828;DHT22;74656;48.870;12.562;2024-02-28T11:22:24;9.00;70.10
83828;DHT22;74656;48.870;12.562;2024-02-28T11:25:29;8.80;70.80
83828;DHT22;74656;48.870;12.562;2024-02-28T11:28:31;8.70;71.10
83828;DHT22;74656;48.870;12.562;2024-02-28T11:31:34;8.60;71.90
83828;DHT22;74656;48.870;12.562;2024-02-28T11:34:36;8.60;72.10
83828;DHT22;74656;48.870;12.562;2024-02-28T11:37:38;8.60;72.40
83828;DHT22;74656;48.870;12.562;2024-02-28T11:40:49;8.80;71.40
83828;DHT22;74656;48.870;12.562;2024-02-28T11:43:51;8.90;70.80
83828;DHT22;74656;48.870;12.562;2024-02-28T11:46:53;8.90;72.20
83828;DHT22;74656;48.870;12.562;2024-02-28T11:50:00;9.10;70.40
83828;DHT22;74656;48.870;12.562;2024-02-28T11:53:02;9.10;69.60
83828;DHT22;74656;48.870;12.562;2024-02-28T11:56:04;9.30;69.20
83828;DHT22;74656;48.870;12.562;2024-02-28T11:59:08;9.40;68.30
83828;DHT22;74656;48.870;12.562;2024-02-28T12:02:13;9.30;68.00
83828;DHT22;74656;48.870;12.562;2024-02-28T12:05:15;9.30;68.40
83828;DHT22;74656;48.870;12.562;2024-02-28T12:08:18;9.40;68.00
83828;DHT22;74656;48.870;12.562;2024-02-28T12:11:20;9.30;68.10
83828;DHT22;74656;48.870;12.562;2024-02-28T12:14:22;9.00;69.00
83828;DHT22;74656;48.870;12.562;2024-02-28T12:17:25;8.90;69.40
83828;DHT22;74656;48.870;12.562;2024-02-28T12:20:27;8.90;70.00
83828;DHT22;74656;48.870;12.562;2024-02-28T12:23:29;9.00;69.80
83828;DHT22;74656;48.870;12.562;2024-02-28T12:26:31;9.10;68.50
83828;DHT22;74656;48.870;12.562;2024-02-28T12:29:33;9.20;68.20
83828;DHT22;74656;48.870;12.562;2024-02-28T12:32:36;9.20;68.20
83828;DHT22;74656;48.870;12.562;2024-02-28T12:35:37;9.20;68.70
83828;DHT22;74656;48.870;12.562;2024-02-28T12:38:39;9.00;69.70
83828;DHT22;74656;48.870;12.562;2024-02-28T12:41:41;9.10;69.20
83828;DHT22;74656;48.870;12.562;2024-02-28T12:44:43;9.20;68.40
83828;DHT22;74656;48.870;12.562;2024-02-28T12:47:45;9.20;68.20
83828;DHT22;74656;48.870;12.562;2024-02-28T12:50:50;9.30;68.20
83828;DHT22;74656;48.870;12.562;2024-02-28T12:53:53;9.30;68.10
83828;DHT22;74656;48.870;12.562;2024-02-28T12:56:55;9.30;68.20
83828;DHT22;74656;48.870;12.562;2024-02-28T12:59:57;9.20;68.50
83828;DHT22;74656;48.870;12.562;2024-02-28T13:02:59;9.00;69.20
83828;DHT22;74656;48.870;12.562;2024-02-28T13:06:01;8.90;69.20
83828;DHT22;74656;48.870;12.562;2024-02-28T13:09:03;8.80;69.90
83828;DHT22;74656;48.870;12.562;2024-02-28T13:12:07;8.80;69.50
83828;DHT22;74656;48.870;12.562;2024-02-28T13:15:09;8.80;70.00
83828;DHT22;74656;48.870;12.562;2024-02-28T13:18:11;8.80;70.40
83828;DHT22;74656;48.870;12.562;2024-02-28T13:21:13;9.00;69.40
83828;DHT22;74656;48.870;12.562;2024-02-28T13:24:15;9.00;68.80
83828;DHT22;74656;48.870;12.562;2024-02-28T13:27:17;9.00;69.20
83828;DHT22;74656;48.870;12.562;2024-02-28T13:30:19;9.10;69.00
83828;DHT22;74656;48.870;12.562;2024-02-28T13:33:21;9.30;68.60
83828;DHT22;74656;48.870;12.562;2024-02-28T13:36:24;9.30;68.10
83828;DHT22;74656;48.870;12.562;2024-02-28T13:39:25;9.30;68.00
83828;DHT22;74656;48.870;12.562;2024-02-28T13:42:27;9.30;67.50
83828;DHT22;74656;48.870;12.562;2024-02-28T13:45:29;9.10;68.20
83828;DHT22;74656;48.870;12.562;2024-02-28T13:48:32;9.00;68.60
83828;DHT22;74656;48.870;12.562;2024-02-28T13:51:34;8.90;69.00
83828;DHT22;74656;48.870;12.562;2024-02-28T13:54:36;8.80;68.80
83828;DHT22;74656;48.870;12.562;2024-02-28T13:57:39;8.80;69.20
83828;DHT22;74656;48.870;12.562;2024-02-28T14:00:41;8.80;69.30
83828;DHT22;74656;48.870;12.562;2024-02-28T14:03:43;8.80;69.70
83828;DHT22;74656;48.870;12.562;2024-02-28T14:06:46;8.80;69.70
83828;DHT22;74656;48.870;12.562;2024-02-28T14:09:48;8.70;70.10
83828;DHT22;74656;48.870;12.562;2024-02-28T14:12:50;8.80;69.50
83828;DHT22;74656;48.870;12.562;2024-02-28T14:15:52;8.90;67.60
83828;DHT22;74656;48.870;12.562;2024-02-28T14:18:54;9.00;67.00
83828;DHT22;74656;48.870;12.562;2024-02-28T14:21:57;9.00;66.80
83828;DHT22;74656;48.870;12.562;2024-02-28T14:25:00;9.10;65.90
83828;DHT22;74656;48.870;12.562;2024-02-28T14:28:02;9.10;65.70
83828;DHT22;74656;48.870;12.562;2024-02-28T14:31:05;9.10;65.90
83828;DHT22;74656;48.870;12.562;2024-02-28T14:34:07;9.10;65.30
83828;DHT22;74656;48.870;12.562;2024-02-28T14:37:09;9.00;65.80
83828;DHT22;74656;48.870;12.562;2024-02-28T14:40:11;9.00;66.30
83828;DHT22;74656;48.870;12.562;2024-02-28T14:43:13;8.80;66.40
83828;DHT22;74656;48.870;12.562;2024-02-28T14:46:15;8.80;66.80
83828;DHT22;74656;48.870;12.562;2024-02-28T14:49:17;8.80;67.00
83828;DHT22;74656;48.870;12.562;2024-02-28T14:52:19;8.70;66.50
83828;DHT22;74656;48.870;12.562;2024-02-28T14:55:22;8.70;68.50
83828;DHT22;74656;48.870;12.562;2024-02-28T14:58:24;8.80;69.70
83828;DHT22;74656;48.870;12.562;2024-02-28T15:01:26;8.90;68.40
83828;DHT22;74656;48.870;12.562;2024-02-28T15:04:28;9.00;67.10
83828;DHT22;74656;48.870;12.562;2024-02-28T15:07:30;9.00;66.00
83828;DHT22;74656;48.870;12.562;2024-02-28T15:10:32;9.00;66.10
83828;DHT22;74656;48.870;12.562;2024-02-28T15:13:34;9.00;66.00
83828;DHT22;74656;48.870;12.562;2024-02-28T15:16:36;8.90;66.40
83828;DHT22;74656;48.870;12.562;2024-02-28T15:19:38;8.90;66.60
83828;DHT22;74656;48.870;12.562;2024-02-28T15:22:40;8.80;66.90
83828;DHT22;74656;48.870;12.562;2024-02-28T15:25:42;8.70;67.50
83828;DHT22;74656;48.870;12.562;2024-02-28T15:28:43;8.60;67.70
83828;DHT22;74656;48.870;12.562;2024-02-28T15:31:45;8.60;68.50
83828;DHT22;74656;48.870;12.562;2024-02-28T15:34:48;8.60;67.80
83828;DHT22;74656;48.870;12.562;2024-02-28T15:37:49;8.50;68.10
83828;DHT22;74656;48.870;12.562;2024-02-28T15:40:51;8.50;68.50
83828;DHT22;74656;48.870;12.562;2024-02-28T15:43:53;8.50;68.40
83828;DHT22;74656;48.870;12.562;2024-02-28T15:46:55;8.60;67.80
83828;DHT22;74656;48.870;12.562;2024-02-28T15:49:57;8.50;68.20
83828;DHT22;74656;48.870;12.562;2024-02-28T15:52:59;8.40;68.50
83828;DHT22;74656;48.870;12.562;2024-02-28T15:56:01;8.30;68.90
83828;DHT22;74656;48.870;12.562;2024-02-28T15:59:03;8.20;69.20
83828;DHT22;74656;48.870;12.562;2024-02-28T16:02:05;8.20;69.80
83828;DHT22;74656;48.870;12.562;2024-02-28T16:05:07;8.30;69.20
83828;DHT22;74656;48.870;12.562;2024-02-28T16:08:09;8.30;69.20
83828;DHT22;74656;48.870;12.562;2024-02-28T16:11:11;8.20;69.60
83828;DHT22;74656;48.870;12.562;2024-02-28T16:14:13;8.10;69.60
83828;DHT22;74656;48.870;12.562;2024-02-28T16:17:15;8.10;69.70
83828;DHT22;74656;48.870;12.562;2024-02-28T16:20:18;8.10;69.90
83828;DHT22;74656;48.870;12.562;2024-02-28T16:23:20;8.10;70.00
83828;DHT22;74656;48.870;12.562;2024-02-28T16:26:22;8.10;70.10
83828;DHT22;74656;48.870;12.562;2024-02-28T16:29:24;8.20;69.60
83828;DHT22;74656;48.870;12.562;2024-02-28T16:32:26;8.30;68.80
83828;DHT22;74656;48.870;12.562;2024-02-28T16:35:28;8.20;69.30
83828;DHT22;74656;48.870;12.562;2024-02-28T16:38:30;8.10;69.80
83828;DHT22;74656;48.870;12.562;2024-02-28T16:41:32;7.90;70.10
83828;DHT22;74656;48.870;12.562;2024-02-28T16:44:34;8.00;70.20
83828;DHT22;74656;48.870;12.562;2024-02-28T16:47:36;8.10;70.00
83828;DHT22;74656;48.870;12.562;2024-02-28T16:50:38;8.00;70.10
83828;DHT22;74656;48.870;12.562;2024-02-28T16:53:40;7.90;70.60
83828;DHT22;74656;48.870;12.562;2024-02-28T16:56:42;7.80;71.00
83828;DHT22;74656;48.870;12.562;2024-02-28T16:59:43;7.70;71.90
83828;DHT22;74656;48.870;12.562;2024-02-28T17:02:45;7.60;72.30
83828;DHT22;74656;48.870;12.562;2024-02-28T17:05:47;7.70;72.50
83828;DHT22;74656;48.870;12.562;2024-02-28T17:08:49;7.60;72.50
83828;DHT22;74656;48.870;12.562;2024-02-28T17:11:51;7.60;72.60
83828;DHT22;74656;48.870;12.562;2024-02-28T17:14:54;7.60;72.50
83828;DHT22;74656;48.870;12.562;2024-02-28T17:17:56;7.60;72.80
83828;DHT22;74656;48.870;12.562;2024-02-28T17:20:59;7.50;72.90
83828;DHT22;74656;48.870;12.562;2024-02-28T17:24:01;7.50;72.90
83828;DHT22;74656;48.870;12.562;2024-02-28T17:27:03;7.50;72.60
83828;DHT22;74656;48.870;12.562;2024-02-28T17:30:06;7.50;72.70
83828;DHT22;74656;48.870;12.562;2024-02-28T17:33:08;7.50;73.00
83828;DHT22;74656;48.870;12.562;2024-02-28T17:36:10;7.50;73.00
83828;DHT22;74656;48.870;12.562;2024-02-28T17:39:12;7.50;73.20
83828;DHT22;74656;48.870;12.562;2024-02-28T17:42:14;7.50;73.30
83828;DHT22;74656;48.870;12.562;2024-02-28T17:45:16;7.50;73.40
83828;DHT22;74656;48.870;12.562;2024-02-28T17:48:19;7.30;73.70
83828;DHT22;74656;48.870;12.562;2024-02-28T17:51:21;7.40;73.70
83828;DHT22;74656;48.870;12.562;2024-02-28T17:54:23;7.40;74.00
83828;DHT22;74656;48.870;12.562;2024-02-28T17:57:25;7.30;74.50
83828;DHT22;74656;48.870;12.562;2024-02-28T18:00:27;7.30;74.80
83828;DHT22;74656;48.870;12.562;2024-02-28T18:03:29;7.30;74.80
83828;DHT22;74656;48.870;12.562;2024-02-28T18:06:31;7.40;74.10
83828;DHT22;74656;48.870;12.562;2024-02-28T18:09:33;7.40;74.10
83828;DHT22;74656;48.870;12.562;2024-02-28T18:12:35;7.40;74.00
83828;DHT22;74656;48.870;12.562;2024-02-28T18:15:37;7.40;74.40
83828;DHT22;74656;48.870;12.562;2024-02-28T18:18:39;7.40;74.40
83828;DHT22;74656;48.870;12.562;2024-02-28T18:21:41;7.50;73.80
83828;DHT22;74656;48.870;12.562;2024-02-28T18:24:43;7.40;73.60
83828;DHT22;74656;48.870;12.562;2024-02-28T18:27:45;7.50;73.70
83828;DHT22;74656;48.870;12.562;2024-02-28T18:30:47;7.60;75.70
83828;DHT22;74656;48.870;12.562;2024-02-28T18:33:49;7.70;72.20
83828;DHT22;74656;48.870;12.562;2024-02-28T18:36:51;7.80;71.50
83828;DHT22;74656;48.870;12.562;2024-02-28T18:39:54;7.80;71.50
83828;DHT22;74656;48.870;12.562;2024-02-28T18:42:56;7.70;71.50
83828;DHT22;74656;48.870;12.562;2024-02-28T18:45:58;7.60;72.40
83828;DHT22;74656;48.870;12.562;2024-02-28T18:49:02;7.60;72.20
83828;DHT22;74656;48.870;12.562;2024-02-28T18:52:04;7.50;72.30
83828;DHT22;74656;48.870;12.562;2024-02-28T18:55:06;7.40;72.60
83828;DHT22;74656;48.870;12.562;2024-02-28T18:58:08;7.50;72.80
83828;DHT22;74656;48.870;12.562;2024-02-28T19:01:10;7.50;73.00
83828;DHT22;74656;48.870;12.562;2024-02-28T19:04:12;7.40;73.10
83828;DHT22;74656;48.870;12.562;2024-02-28T19:07:15;7.30;73.50
83828;DHT22;74656;48.870;12.562;2024-02-28T19:10:17;7.30;73.40
83828;DHT22;74656;48.870;12.562;2024-02-28T19:13:19;7.30;73.40